createdAt,value
2022-07-29T00:01:56.075Z,20.39
2022-07-29T00:04:25.861Z,20.32
2022-07-29T00:06:55.521Z,20.32
2022-07-29T00:09:27.779Z,20.31
2022-07-29T00:11:57.921Z,20.30
2022-07-29T00:14:27.704Z,20.27
2022-07-29T00:16:57.372Z,20.24
2022-07-29T00:19:27.077Z,20.19
2022-07-29T00:21:56.691Z,20.18
2022-07-29T00:24:29.033Z,20.17
2022-07-29T00:26:58.777Z,20.16
2022-07-29T00:29:34.104Z,20.11
2022-07-29T00:32:04.439Z,20.06
2022-07-29T00:34:46.865Z,20.03
2022-07-29T00:37:16.512Z,20.01
2022-07-29T00:39:48.773Z,19.98
2022-07-29T00:42:18.435Z,19.95
2022-07-29T00:44:48.231Z,19.96
2022-07-29T00:47:17.921Z,19.95
2022-07-29T00:49:47.845Z,19.95
2022-07-29T00:52:17.655Z,19.97
2022-07-29T00:54:49.912Z,19.91
2022-07-29T00:57:19.568Z,19.90
2022-07-29T00:59:49.262Z,19.88
2022-07-29T01:02:19.063Z,19.83
2022-07-29T01:04:49.029Z,19.77
2022-07-29T01:07:19.023Z,19.71
2022-07-29T01:09:51.586Z,19.72
2022-07-29T01:12:22.906Z,19.67
2022-07-29T01:14:53.356Z,19.64
2022-07-29T01:17:26.467Z,19.61
2022-07-29T01:20:02.312Z,19.61
2022-07-29T01:22:40.817Z,19.58
2022-07-29T01:25:23.815Z,19.55
2022-07-29T01:28:12.868Z,19.53
2022-07-29T01:30:46.172Z,19.50
2022-07-29T01:33:40.655Z,19.50
2022-07-29T01:36:14.557Z,19.46
2022-07-29T01:38:47.055Z,19.44
2022-07-29T01:41:19.304Z,19.42
2022-07-29T01:43:55.063Z,19.42
2022-07-29T01:46:31.326Z,19.38
2022-07-29T01:49:06.267Z,19.36
2022-07-29T01:51:40.013Z,19.33
2022-07-29T01:54:13.181Z,19.26
2022-07-29T01:56:43.222Z,19.27
2022-07-29T01:59:13.696Z,19.26
2022-07-29T02:01:47.198Z,19.26
2022-07-29T02:04:29.891Z,19.21
2022-07-29T02:07:04.653Z,19.23
2022-07-29T02:09:36.200Z,19.21
2022-07-29T02:12:07.897Z,19.22
2022-07-29T02:14:42.558Z,19.19
2022-07-29T02:17:16.348Z,19.18
2022-07-29T02:19:47.167Z,19.16
2022-07-29T02:22:17.519Z,19.13
2022-07-29T02:24:48.219Z,19.15
2022-07-29T02:27:18.157Z,19.11
2022-07-29T02:29:49.628Z,19.09
2022-07-29T02:32:22.866Z,19.08
2022-07-29T02:34:53.122Z,19.06
2022-07-29T02:37:22.916Z,18.99
2022-07-29T02:39:52.855Z,19.02
2022-07-29T02:42:22.653Z,19.04
2022-07-29T02:44:52.537Z,19.02
2022-07-29T02:47:27.425Z,19.04
2022-07-29T02:50:01.102Z,19.04
2022-07-29T02:52:33.385Z,19.00
2022-07-29T02:55:05.921Z,18.99
2022-07-29T02:57:54.763Z,18.97
2022-07-29T03:00:25.650Z,18.99
2022-07-29T03:02:59.977Z,18.99
2022-07-29T03:05:30.216Z,18.98
2022-07-29T03:08:01.703Z,18.97
2022-07-29T03:10:31.582Z,18.97
2022-07-29T03:13:02.053Z,18.97
2022-07-29T03:15:32.380Z,18.97
2022-07-29T03:18:04.813Z,18.93
2022-07-29T03:20:34.686Z,18.90
2022-07-29T03:23:04.315Z,18.87
2022-07-29T03:25:34.567Z,18.87
2022-07-29T03:28:04.273Z,18.85
2022-07-29T03:30:33.950Z,18.79
2022-07-29T03:33:13.537Z,18.76
2022-07-29T03:35:43.573Z,18.66
2022-07-29T03:38:13.371Z,18.70
2022-07-29T03:40:49.138Z,18.74
2022-07-29T03:43:19.679Z,18.72
2022-07-29T03:45:51.863Z,18.70
2022-07-29T03:48:26.125Z,18.67
2022-07-29T03:50:56.144Z,18.67
2022-07-29T03:53:26.110Z,18.68
2022-07-29T03:55:58.775Z,18.66
2022-07-29T03:58:30.212Z,18.67
2022-07-29T04:01:00.729Z,18.68
2022-07-29T04:03:33.663Z,18.67
2022-07-29T04:06:06.653Z,18.70
2022-07-29T04:08:36.604Z,18.68
2022-07-29T04:11:07.923Z,18.65
2022-07-29T04:13:37.883Z,18.63
2022-07-29T04:16:08.312Z,18.64
2022-07-29T04:18:40.558Z,18.65
2022-07-29T04:21:10.305Z,18.67
2022-07-29T04:23:47.967Z,18.65
2022-07-29T04:26:24.443Z,18.67
2022-07-29T04:28:54.089Z,18.70
2022-07-29T04:31:25.864Z,18.71
2022-07-29T04:33:58.590Z,18.73
2022-07-29T04:36:29.476Z,18.72
2022-07-29T04:38:59.559Z,18.70
2022-07-29T04:41:32.986Z,18.68
2022-07-29T04:44:07.214Z,18.71
2022-07-29T04:46:37.200Z,18.71
2022-07-29T04:49:09.584Z,18.74
2022-07-29T04:51:39.281Z,18.73
2022-07-29T04:54:09.104Z,18.73
2022-07-29T04:56:39.011Z,18.76
2022-07-29T04:59:08.941Z,18.74
2022-07-29T05:01:38.676Z,18.75
2022-07-29T05:04:11.087Z,18.76
2022-07-29T05:06:40.792Z,18.76
2022-07-29T05:09:10.681Z,18.77
2022-07-29T05:11:40.290Z,18.84
2022-07-29T05:14:09.992Z,18.80
2022-07-29T05:16:40.451Z,18.79
2022-07-29T05:19:14.638Z,18.78
2022-07-29T05:21:44.857Z,18.78
2022-07-29T05:24:14.895Z,18.81
2022-07-29T05:26:45.983Z,18.80
2022-07-29T05:29:42.675Z,18.82
2022-07-29T05:32:05.345Z,18.78
2022-07-29T05:34:37.576Z,18.79
2022-07-29T05:37:19.588Z,18.82
2022-07-29T05:39:56.803Z,18.84
2022-07-29T05:42:27.293Z,18.84
2022-07-29T05:44:57.290Z,18.82
2022-07-29T05:47:28.216Z,18.88
2022-07-29T05:50:00.646Z,18.93
2022-07-29T05:52:30.339Z,18.91
2022-07-29T05:55:02.167Z,18.94
2022-07-29T05:57:32.013Z,18.95
2022-07-29T06:00:01.791Z,19.00
2022-07-29T06:02:31.605Z,18.96
2022-07-29T06:05:04.127Z,18.99
2022-07-29T06:07:34.435Z,19.05
2022-07-29T06:10:06.974Z,19.07
2022-07-29T06:12:36.676Z,19.03
2022-07-29T06:15:06.939Z,19.06
2022-07-29T06:17:36.628Z,19.00
2022-07-29T06:20:10.836Z,18.97
2022-07-29T06:22:40.505Z,18.91
2022-07-29T06:25:10.957Z,18.86
2022-07-29T06:27:40.621Z,18.90
2022-07-29T06:30:11.395Z,18.94
2022-07-29T06:32:43.167Z,18.98
2022-07-29T06:38:07.305Z,19.05
2022-07-29T06:41:04.854Z,19.08
2022-07-29T06:43:50.481Z,19.12
2022-07-29T06:46:22.572Z,19.21
2022-07-29T06:48:53.062Z,19.24
2022-07-29T06:51:26.157Z,19.29
2022-07-29T06:53:59.397Z,19.33
2022-07-29T06:56:32.529Z,19.45
2022-07-29T06:59:09.890Z,19.50
2022-07-29T07:01:39.745Z,19.52
2022-07-29T07:04:09.762Z,19.58
2022-07-29T07:06:42.350Z,19.63
2022-07-29T07:09:12.168Z,19.70
2022-07-29T07:11:41.952Z,19.66
2022-07-29T07:14:11.608Z,19.67
2022-07-29T07:16:41.421Z,19.71
2022-07-29T07:19:11.114Z,19.68
2022-07-29T07:21:46.565Z,19.62
2022-07-29T07:24:16.789Z,19.59
2022-07-29T07:26:46.833Z,19.55
2022-07-29T07:29:16.854Z,19.53
2022-07-29T07:31:46.639Z,19.57
2022-07-29T07:34:16.788Z,19.57
2022-07-29T07:37:00.494Z,19.49
2022-07-29T07:39:30.233Z,19.51
2022-07-29T07:41:59.941Z,19.54
2022-07-29T07:44:29.928Z,19.58
2022-07-29T07:47:03.988Z,19.70
2022-07-29T07:49:42.061Z,19.71
2022-07-29T07:52:17.395Z,19.78
2022-07-29T07:54:47.627Z,19.84
2022-07-29T07:57:19.411Z,19.91
2022-07-29T07:59:49.247Z,19.89
2022-07-29T08:02:18.973Z,19.99
2022-07-29T08:04:48.728Z,20.04
2022-07-29T08:07:21.144Z,20.10
2022-07-29T08:09:50.851Z,20.20
2022-07-29T08:12:20.567Z,20.26
2022-07-29T08:14:50.263Z,20.31
2022-07-29T08:17:19.937Z,20.37
2022-07-29T08:19:50.768Z,20.42
2022-07-29T08:22:23.091Z,20.41
2022-07-29T08:24:57.120Z,20.44
2022-07-29T08:27:42.941Z,20.43
2022-07-29T08:30:13.856Z,20.44
2022-07-29T08:32:53.629Z,20.43
2022-07-29T08:35:23.979Z,20.40
2022-07-29T08:37:57.833Z,20.38
2022-07-29T08:40:32.235Z,20.36
2022-07-29T08:43:02.589Z,20.34
2022-07-29T08:45:33.458Z,20.33
2022-07-29T08:48:03.360Z,20.33
2022-07-29T08:50:33.018Z,20.31
2022-07-29T08:53:05.608Z,20.31
2022-07-29T08:55:35.604Z,20.28
2022-07-29T08:58:05.827Z,20.24
2022-07-29T09:00:36.687Z,20.22
2022-07-29T09:03:08.697Z,20.19
2022-07-29T09:05:42.007Z,20.20
2022-07-29T09:08:16.652Z,20.18
2022-07-29T09:10:46.724Z,20.17
2022-07-29T09:13:16.472Z,20.18
2022-07-29T09:15:46.202Z,20.17
2022-07-29T09:18:20.333Z,20.19
2022-07-29T09:21:13.265Z,20.21
2022-07-29T09:23:45.517Z,20.24
2022-07-29T09:26:15.169Z,20.23
2022-07-29T09:28:45.970Z,20.20
2022-07-29T09:31:15.669Z,20.21
2022-07-29T09:33:45.452Z,20.23
2022-07-29T09:36:15.197Z,20.25
2022-07-29T09:39:01.135Z,20.23
2022-07-29T09:41:31.124Z,20.27
2022-07-29T09:44:02.657Z,20.31
2022-07-29T09:46:32.433Z,20.32
2022-07-29T09:49:12.382Z,20.34
2022-07-29T09:51:42.813Z,20.35
2022-07-29T09:54:35.395Z,20.38
2022-07-29T09:57:05.065Z,20.36
2022-07-29T09:59:35.273Z,20.32
2022-07-29T10:02:04.980Z,20.29
2022-07-29T10:04:42.757Z,20.33
2022-07-29T10:07:12.975Z,20.34
2022-07-29T10:09:54.290Z,20.33
2022-07-29T10:12:23.931Z,20.32
2022-07-29T10:14:54.352Z,20.36
2022-07-29T10:17:24.776Z,20.39
2022-07-29T10:19:54.619Z,20.44
2022-07-29T10:22:51.481Z,20.47
2022-07-29T10:25:18.617Z,20.50
2022-07-29T10:27:49.348Z,20.50
2022-07-29T10:30:19.819Z,20.54
2022-07-29T10:33:05.934Z,20.53
2022-07-29T10:35:58.262Z,20.45
2022-07-29T10:38:50.066Z,20.49
2022-07-29T10:41:52.545Z,20.50
2022-07-29T10:44:26.049Z,20.52
2022-07-29T10:46:55.954Z,20.53
2022-07-29T10:49:30.403Z,20.50
2022-07-29T10:52:06.123Z,20.48
2022-07-29T10:54:48.394Z,20.52
2022-07-29T10:57:20.836Z,20.48
2022-07-29T10:59:53.992Z,20.50
2022-07-29T11:02:46.566Z,20.56
2022-07-29T11:05:18.756Z,20.63
2022-07-29T11:11:37.676Z,20.81
2022-07-29T11:14:10.307Z,20.88
2022-07-29T11:17:06.784Z,20.95
2022-07-29T11:19:40.314Z,20.94
2022-07-29T11:22:16.592Z,20.98
2022-07-29T11:24:50.141Z,21.00
2022-07-29T11:27:23.054Z,21.02
2022-07-29T11:29:58.520Z,21.10
2022-07-29T11:32:40.839Z,21.18
2022-07-29T11:35:37.099Z,21.29
2022-07-29T11:38:31.937Z,21.38
2022-07-29T11:41:31.867Z,21.45
2022-07-29T11:44:03.778Z,21.57
2022-07-29T11:46:50.376Z,21.69
2022-07-29T11:49:31.567Z,21.79
2022-07-29T11:52:04.953Z,21.88
2022-07-29T11:54:57.395Z,21.96
2022-07-29T11:57:36.152Z,22.05
2022-07-29T12:03:00.556Z,22.24
2022-07-29T12:05:52.935Z,22.37
2022-07-29T12:08:23.657Z,22.46
2022-07-29T12:10:54.385Z,22.53
2022-07-29T12:13:37.541Z,22.62
2022-07-29T12:16:08.595Z,22.72
2022-07-29T12:18:38.430Z,22.85
2022-07-29T12:21:12.398Z,22.89
2022-07-29T12:23:42.288Z,22.94
2022-07-29T12:26:21.802Z,23.05
2022-07-29T12:28:55.613Z,23.12
2022-07-29T12:31:43.192Z,23.20
2022-07-29T12:34:15.326Z,23.31
2022-07-29T12:36:47.819Z,23.37
2022-07-29T12:39:19.127Z,23.41
2022-07-29T12:41:49.420Z,23.43
2022-07-29T12:44:19.169Z,23.50
2022-07-29T12:46:49.837Z,23.51
2022-07-29T12:49:25.265Z,23.46
2022-07-29T12:51:58.070Z,23.45
2022-07-29T12:54:27.974Z,23.47
2022-07-29T12:57:05.163Z,23.40
2022-07-29T12:59:34.796Z,23.38
2022-07-29T13:02:08.156Z,23.41
2022-07-29T13:04:38.412Z,23.50
2022-07-29T13:07:12.792Z,23.56
2022-07-29T13:09:46.684Z,23.67
2022-07-29T13:12:17.678Z,23.74
2022-07-29T13:14:49.027Z,23.77
2022-07-29T13:17:20.083Z,23.87
2022-07-29T13:19:52.388Z,23.99
2022-07-29T13:22:26.182Z,24.05
2022-07-29T13:24:57.652Z,24.09
2022-07-29T13:27:28.804Z,24.19
2022-07-29T13:30:00.518Z,24.21
2022-07-29T13:32:32.192Z,24.26
2022-07-29T13:35:05.145Z,24.27
2022-07-29T13:37:39.463Z,24.23
2022-07-29T13:40:11.524Z,24.29
2022-07-29T13:42:41.807Z,24.33
2022-07-29T13:45:13.016Z,24.39
2022-07-29T13:47:47.645Z,24.39
2022-07-29T13:50:19.798Z,24.50
2022-07-29T13:52:52.328Z,24.50
2022-07-29T13:55:22.119Z,24.55
2022-07-29T13:57:51.809Z,24.58
2022-07-29T14:00:21.731Z,24.73
2022-07-29T14:02:51.367Z,24.65
2022-07-29T14:05:21.067Z,24.69
2022-07-29T14:07:53.335Z,24.74
2022-07-29T14:10:23.242Z,24.83
2022-07-29T14:12:52.831Z,24.89
2022-07-29T14:15:22.536Z,24.96
2022-07-29T14:17:52.200Z,25.03
2022-07-29T14:20:22.162Z,25.08
2022-07-29T14:22:54.559Z,25.14
2022-07-29T14:25:24.513Z,25.18
2022-07-29T14:27:55.210Z,25.18
2022-07-29T14:30:28.251Z,25.17
2022-07-29T14:32:57.836Z,25.22
2022-07-29T14:35:27.907Z,25.25
2022-07-29T14:38:00.178Z,25.28
2022-07-29T14:40:30.130Z,25.33
2022-07-29T14:42:59.804Z,25.38
2022-07-29T14:45:29.627Z,25.41
2022-07-29T14:48:00.901Z,25.38
2022-07-29T14:50:31.617Z,25.37
2022-07-29T14:53:04.825Z,25.38
2022-07-29T14:55:34.592Z,25.35
2022-07-29T14:58:10.983Z,25.36
2022-07-29T15:00:43.204Z,25.35
2022-07-29T15:03:13.085Z,25.35
2022-07-29T15:05:54.042Z,25.37
2022-07-29T15:08:28.906Z,25.37
2022-07-29T15:10:58.557Z,25.45
2022-07-29T15:13:28.196Z,25.49
2022-07-29T15:16:00.164Z,25.54
2022-07-29T15:18:30.043Z,25.58
2022-07-29T15:21:01.431Z,25.58
2022-07-29T15:23:33.765Z,25.66
2022-07-29T15:26:03.417Z,25.70
2022-07-29T15:28:33.215Z,25.72
2022-07-29T15:31:03.069Z,25.71
2022-07-29T15:33:32.705Z,25.73
2022-07-29T15:36:02.378Z,25.78
2022-07-29T15:38:34.752Z,25.78
2022-07-29T15:41:04.464Z,25.76
2022-07-29T15:43:35.741Z,25.75
2022-07-29T15:46:17.947Z,25.70
2022-07-29T15:48:47.691Z,25.72
2022-07-29T15:51:18.345Z,25.69
2022-07-29T15:53:53.292Z,25.69
2022-07-29T15:56:23.492Z,25.75
2022-07-29T15:58:53.446Z,25.76
2022-07-29T16:01:23.210Z,25.78
2022-07-29T16:03:53.095Z,25.79
2022-07-29T16:06:22.793Z,25.79
2022-07-29T16:08:55.839Z,25.82
2022-07-29T16:11:25.599Z,25.77
2022-07-29T16:13:55.421Z,25.72
2022-07-29T16:16:25.383Z,25.73
2022-07-29T16:18:55.433Z,25.74
2022-07-29T16:21:25.466Z,25.75
2022-07-29T16:23:58.264Z,25.70
2022-07-29T16:26:27.949Z,25.68
2022-07-29T16:28:57.866Z,25.67
2022-07-29T16:31:27.563Z,25.70
2022-07-29T16:33:57.550Z,25.68
2022-07-29T16:36:27.250Z,25.65
2022-07-29T16:38:59.759Z,25.64
2022-07-29T16:41:29.720Z,25.62
2022-07-29T16:43:59.375Z,25.58
2022-07-29T16:46:29.095Z,25.57
2022-07-29T16:48:59.709Z,25.53
2022-07-29T16:51:30.442Z,25.52
2022-07-29T16:54:02.788Z,25.49
2022-07-29T16:56:35.935Z,25.46
2022-07-29T16:59:05.927Z,25.45
2022-07-29T17:01:35.615Z,25.44
2022-07-29T17:04:12.020Z,25.44
2022-07-29T17:06:42.686Z,25.36
2022-07-29T17:09:16.829Z,25.34
2022-07-29T17:11:54.842Z,25.30
2022-07-29T17:14:26.195Z,25.25
2022-07-29T17:17:01.265Z,25.20
2022-07-29T17:19:32.142Z,25.18
2022-07-29T17:22:11.739Z,25.17
2022-07-29T17:24:48.104Z,25.14
2022-07-29T17:27:18.407Z,25.17
2022-07-29T17:29:48.957Z,25.20
2022-07-29T17:32:18.666Z,25.22
2022-07-29T17:34:48.367Z,25.21
2022-07-29T17:37:18.029Z,25.19
2022-07-29T17:39:50.868Z,25.14
2022-07-29T17:42:20.717Z,25.09
2022-07-29T17:44:50.431Z,25.08
2022-07-29T17:47:20.115Z,25.06
2022-07-29T17:49:49.740Z,25.06
2022-07-29T17:52:19.448Z,25.05
2022-07-29T17:54:51.756Z,25.03
2022-07-29T17:57:21.441Z,25.03
2022-07-29T17:59:51.621Z,25.01
2022-07-29T18:02:21.260Z,24.95
2022-07-29T18:04:50.943Z,24.92
2022-07-29T18:07:20.631Z,24.85
2022-07-29T18:09:55.381Z,24.83
2022-07-29T18:12:27.125Z,24.77
2022-07-29T18:14:56.789Z,24.74
2022-07-29T18:17:48.401Z,24.67
2022-07-29T18:20:16.886Z,24.62
2022-07-29T18:22:46.621Z,24.55
2022-07-29T18:25:18.905Z,24.51
2022-07-29T18:27:48.565Z,24.45
2022-07-29T18:30:19.248Z,24.41
2022-07-29T18:33:18.212Z,24.34
2022-07-29T18:35:39.211Z,24.29
2022-07-29T18:38:08.888Z,24.22
2022-07-29T18:40:42.059Z,24.20
2022-07-29T18:43:11.964Z,24.12
2022-07-29T18:45:42.599Z,24.04
2022-07-29T18:48:13.132Z,23.99
2022-07-29T18:50:43.397Z,23.95
2022-07-29T18:53:13.101Z,23.91
2022-07-29T18:55:45.398Z,23.86
2022-07-29T18:58:15.117Z,23.78
2022-07-29T19:00:44.777Z,23.76
2022-07-29T19:03:14.733Z,23.72
2022-07-29T19:05:44.601Z,23.64
2022-07-29T19:08:14.468Z,23.61
2022-07-29T19:10:46.751Z,23.52
2022-07-29T19:13:16.415Z,23.52
2022-07-29T19:15:46.430Z,23.47
2022-07-29T19:18:16.108Z,23.39
2022-07-29T19:20:45.750Z,23.31
2022-07-29T19:23:15.475Z,23.24
2022-07-29T19:25:53.833Z,23.21
2022-07-29T19:28:23.816Z,23.14
2022-07-29T19:30:53.593Z,23.07
2022-07-29T19:33:23.412Z,23.01
2022-07-29T19:35:55.118Z,22.96
2022-07-29T19:38:25.120Z,22.85
2022-07-29T19:40:57.396Z,22.80
2022-07-29T19:43:51.499Z,22.73
2022-07-29T19:46:17.059Z,22.68
2022-07-29T19:48:46.859Z,22.63
2022-07-29T19:51:16.699Z,22.57
2022-07-29T19:53:46.376Z,22.50
2022-07-29T19:56:18.648Z,22.42
2022-07-29T19:58:49.063Z,22.37
2022-07-29T20:01:19.384Z,22.32
2022-07-29T20:03:49.251Z,22.26
2022-07-29T20:06:18.962Z,22.16
2022-07-29T20:08:48.991Z,22.02
2022-07-29T20:11:21.258Z,21.96
2022-07-29T20:13:50.912Z,21.92
2022-07-29T20:16:21.948Z,21.84
2022-07-29T20:18:51.735Z,21.77
2022-07-29T20:21:21.410Z,21.75
2022-07-29T20:23:51.250Z,21.68
2022-07-29T20:26:23.995Z,21.65
2022-07-29T20:28:53.657Z,21.55
2022-07-29T20:31:23.331Z,21.49
2022-07-29T20:33:53.463Z,21.45
2022-07-29T20:36:23.076Z,21.37
2022-07-29T20:38:53.005Z,21.31
2022-07-29T20:41:25.404Z,21.23
2022-07-29T20:43:55.119Z,21.19
2022-07-29T20:46:25.116Z,21.18
2022-07-29T20:48:54.927Z,21.13
2022-07-29T20:51:24.847Z,21.10
2022-07-29T20:53:54.567Z,21.08
2022-07-29T20:56:26.782Z,21.03
2022-07-29T20:58:56.670Z,20.99
2022-07-29T21:01:26.402Z,20.96
2022-07-29T21:03:56.191Z,20.94
2022-07-29T21:06:25.843Z,20.90
2022-07-29T21:08:55.785Z,20.90
2022-07-29T21:11:44.726Z,20.85
2022-07-29T21:14:27.435Z,20.83
2022-07-29T21:16:57.470Z,20.81
2022-07-29T21:19:27.304Z,20.79
2022-07-29T21:21:56.964Z,20.77
2022-07-29T21:24:26.660Z,20.76
2022-07-29T21:27:21.066Z,20.73
2022-07-29T21:29:49.144Z,20.69
2022-07-29T21:32:29.793Z,20.67
2022-07-29T21:35:00.037Z,20.67
2022-07-29T21:37:29.701Z,20.67
2022-07-29T21:39:59.406Z,20.63
2022-07-29T21:42:31.785Z,20.60
2022-07-29T21:45:01.440Z,20.57
2022-07-29T21:47:31.068Z,20.56
2022-07-29T21:50:00.845Z,20.58
2022-07-29T21:52:30.593Z,20.53
2022-07-29T21:55:00.253Z,20.52
2022-07-29T21:57:32.518Z,20.44
2022-07-29T22:00:03.233Z,20.45
2022-07-29T22:02:42.212Z,20.42
2022-07-29T22:05:12.750Z,20.40
2022-07-29T22:07:54.598Z,20.35
2022-07-29T22:10:29.824Z,20.34
2022-07-29T22:13:03.599Z,20.36
2022-07-29T22:15:33.635Z,20.37
2022-07-29T22:18:03.451Z,20.38
2022-07-29T22:20:33.092Z,20.34
2022-07-29T22:23:03.031Z,20.36
2022-07-29T22:25:32.820Z,20.27
2022-07-29T22:28:05.155Z,20.29
2022-07-29T22:30:34.865Z,20.22
2022-07-29T22:33:04.495Z,20.23
2022-07-29T22:35:34.325Z,20.18
2022-07-29T22:38:03.965Z,20.18
2022-07-29T22:40:33.758Z,20.17
2022-07-29T22:43:06.576Z,20.11
2022-07-29T22:45:36.256Z,20.12
2022-07-29T22:48:06.124Z,20.14
2022-07-29T22:50:35.760Z,20.15
2022-07-29T22:53:05.403Z,20.13
2022-07-29T22:55:35.076Z,20.11
2022-07-29T22:58:07.335Z,20.03
2022-07-29T23:00:37.634Z,20.03
2022-07-29T23:03:07.359Z,20.02
2022-07-29T23:05:37.117Z,20.03
2022-07-29T23:08:07.521Z,19.99
2022-07-29T23:10:37.268Z,19.94
2022-07-29T23:13:09.478Z,19.96
2022-07-29T23:15:39.282Z,19.94
2022-07-29T23:18:09.094Z,19.92
2022-07-29T23:20:38.882Z,19.93
2022-07-29T23:23:08.603Z,19.90
2022-07-29T23:25:38.390Z,19.87
2022-07-29T23:28:13.190Z,19.86
2022-07-29T23:30:43.398Z,19.85
2022-07-29T23:33:13.222Z,19.81
2022-07-29T23:35:42.862Z,19.80
2022-07-29T23:38:12.530Z,19.76
2022-07-29T23:40:42.204Z,19.73
2022-07-29T23:43:14.416Z,19.72
2022-07-29T23:45:45.227Z,19.67
2022-07-29T23:48:18.492Z,19.63
2022-07-29T23:50:48.198Z,19.59
2022-07-29T23:53:17.891Z,19.54
2022-07-29T23:55:47.588Z,19.50
2022-07-29T23:58:19.868Z,19.44
